createdAt,value
2022-12-19T00:03:06.191Z,9.93
2022-12-19T00:10:08.916Z,8.98
2022-12-19T00:17:10.868Z,8.13
2022-12-19T00:24:21.271Z,10.35
2022-12-19T00:31:24.193Z,7.82
2022-12-19T00:38:26.549Z,5.53
2022-12-19T00:45:28.976Z,7.72
2022-12-19T00:52:32.452Z,6.20
2022-12-19T00:59:35.707Z,8.45
2022-12-19T01:06:37.795Z,5.50
2022-12-19T01:13:41.043Z,4.15
2022-12-19T01:20:47.624Z,6.90
2022-12-19T01:27:49.541Z,8.80
2022-12-19T01:34:51.467Z,6.93
2022-12-19T01:41:57.323Z,6.78
2022-12-19T01:48:59.696Z,6.53
2022-12-19T01:56:09.265Z,9.30
2022-12-19T02:03:23.183Z,7.03
2022-12-19T02:10:25.307Z,4.53
2022-12-19T02:17:54.852Z,4.95
2022-12-19T02:32:09.741Z,4.10
2022-12-19T02:39:20.072Z,6.97
2022-12-19T02:46:23.341Z,7.20
2022-12-19T02:53:25.553Z,4.82
2022-12-19T03:00:28.938Z,5.47
2022-12-19T03:07:34.747Z,5.50
2022-12-19T03:14:37.304Z,6.22
2022-12-19T03:21:44.202Z,3.85
2022-12-19T03:28:55.532Z,7.07
2022-12-19T03:35:58.728Z,6.00
2022-12-19T03:43:11.325Z,5.57
2022-12-19T03:50:13.696Z,8.88
2022-12-19T03:57:20.353Z,6.78
2022-12-19T04:04:24.098Z,6.03
2022-12-19T04:11:28.136Z,6.60
2022-12-19T04:18:31.077Z,6.07
2022-12-19T04:25:39.800Z,6.38
2022-12-19T04:32:45.584Z,3.95
2022-12-19T04:39:47.670Z,4.88
2022-12-19T04:46:49.914Z,7.90
2022-12-19T04:53:52.146Z,4.47
2022-12-19T05:00:54.372Z,6.15
2022-12-19T05:07:56.483Z,6.10
2022-12-19T05:14:58.447Z,5.07
2022-12-19T05:22:00.406Z,3.53
2022-12-19T05:29:02.852Z,6.03
2022-12-19T05:36:05.691Z,5.90
2022-12-19T05:43:11.009Z,5.22
2022-12-19T05:50:17.823Z,5.40
2022-12-19T05:57:19.821Z,4.30
2022-12-19T06:04:21.848Z,4.03
2022-12-19T06:11:24.251Z,5.32
2022-12-19T06:18:26.766Z,3.92
2022-12-19T06:25:28.776Z,5.18
2022-12-19T06:32:36.218Z,7.38
2022-12-19T06:46:42.349Z,6.88
2022-12-19T06:53:44.793Z,5.43
2022-12-19T07:00:47.170Z,6.18
2022-12-19T07:07:50.543Z,6.07
2022-12-19T07:14:53.689Z,6.07
2022-12-19T07:21:57.425Z,6.93
2022-12-19T07:29:00.363Z,10.43
2022-12-19T07:36:02.481Z,10.95
2022-12-19T07:43:07.122Z,10.45
2022-12-19T07:50:10.339Z,11.15
2022-12-19T07:57:12.928Z,9.85
2022-12-19T08:04:15.393Z,12.40
2022-12-19T08:11:26.665Z,11.77
2022-12-19T08:18:30.359Z,10.98
2022-12-19T08:25:32.805Z,12.70
2022-12-19T08:32:35.164Z,12.00
2022-12-19T08:39:39.300Z,17.92
2022-12-19T08:46:46.526Z,11.90
2022-12-19T08:53:51.869Z,10.13
2022-12-19T09:00:57.559Z,12.38
2022-12-19T09:08:01.254Z,13.95
2022-12-19T09:15:03.464Z,14.02
2022-12-19T09:22:05.400Z,14.73
2022-12-19T09:29:12.551Z,9.75
2022-12-19T09:36:24.859Z,13.20
2022-12-19T09:43:51.381Z,11.55
2022-12-19T09:51:10.174Z,11.07
2022-12-19T10:05:30.535Z,12.32
2022-12-19T10:12:58.516Z,13.40
2022-12-19T10:20:09.985Z,10.63
2022-12-19T10:27:21.114Z,12.32
2022-12-19T10:34:25.850Z,11.38
2022-12-19T10:41:32.422Z,15.07
2022-12-19T10:48:35.166Z,9.98
2022-12-19T10:55:51.543Z,10.88
2022-12-19T11:03:19.262Z,14.27
2022-12-19T11:11:24.735Z,15.15
2022-12-19T11:24:18.017Z,13.88
2022-12-19T11:30:05.577Z,13.88
2022-12-19T11:33:18.488Z,15.38
2022-12-19T11:40:39.408Z,15.65
2022-12-19T11:48:19.056Z,12.85
2022-12-19T11:55:26.431Z,13.65
2022-12-19T12:02:34.733Z,14.90
2022-12-19T12:13:04.195Z,11.67
2022-12-19T12:27:47.329Z,14.50
2022-12-19T12:31:46.813Z,13.80
2022-12-19T12:40:03.367Z,14.02
2022-12-19T12:47:28.319Z,13.60
2022-12-19T12:54:35.308Z,13.65
2022-12-19T13:01:40.589Z,14.40
2022-12-19T13:08:47.974Z,14.60
2022-12-19T13:15:50.378Z,13.95
2022-12-19T13:22:58.555Z,14.75
2022-12-19T13:30:00.756Z,16.30
2022-12-19T13:39:51.849Z,13.30
2022-12-19T13:44:50.208Z,15.95
2022-12-19T13:51:57.596Z,15.10
2022-12-19T13:59:04.384Z,15.57
2022-12-19T14:06:19.655Z,12.75
2022-12-19T14:14:00.888Z,12.27
2022-12-19T14:22:06.855Z,13.55
2022-12-19T14:28:47.571Z,14.13
2022-12-19T14:36:12.110Z,12.95
2022-12-19T14:44:00.463Z,12.25
2022-12-19T14:54:33.974Z,17.25
2022-12-19T14:58:55.831Z,16.98
2022-12-19T15:07:05.638Z,12.10
2022-12-19T15:14:50.794Z,11.10
2022-12-19T15:21:20.840Z,5.65
2022-12-19T15:28:31.188Z,10.98
2022-12-19T15:35:38.750Z,10.40
2022-12-19T15:42:44.727Z,11.07
2022-12-19T15:49:49.699Z,10.60
2022-12-19T15:56:55.949Z,8.68
2022-12-19T16:03:59.646Z,12.65
2022-12-19T16:11:02.465Z,11.07
2022-12-19T16:18:04.617Z,9.43
2022-12-19T16:25:07.861Z,6.10
2022-12-19T16:32:13.340Z,10.75
2022-12-19T16:39:16.041Z,10.93
2022-12-19T16:46:20.708Z,8.63
2022-12-19T16:53:22.913Z,12.68
2022-12-19T17:00:25.528Z,9.18
2022-12-19T17:07:29.193Z,9.75
2022-12-19T17:14:32.360Z,13.18
2022-12-19T17:21:34.360Z,10.77
2022-12-19T17:28:36.917Z,9.52
2022-12-19T17:35:39.529Z,12.40
2022-12-19T17:42:41.514Z,11.40
2022-12-19T17:49:43.838Z,12.35
2022-12-19T17:56:45.933Z,12.75
2022-12-19T18:03:49.309Z,12.02
2022-12-19T18:10:52.679Z,10.23
2022-12-19T18:17:55.461Z,11.40
2022-12-19T18:24:57.549Z,9.68
2022-12-19T18:32:00.093Z,12.85
2022-12-19T18:39:03.361Z,13.23
2022-12-19T18:46:06.956Z,12.85
2022-12-19T18:53:22.511Z,13.35
2022-12-19T19:00:27.157Z,13.23
2022-12-19T19:07:30.776Z,11.32
2022-12-19T19:14:33.447Z,9.40
2022-12-19T19:21:36.453Z,8.40
2022-12-19T19:28:39.712Z,9.20
2022-12-19T19:35:44.190Z,11.95
2022-12-19T19:42:46.638Z,11.00
2022-12-19T19:49:50.227Z,11.45
2022-12-19T19:56:52.818Z,12.00
2022-12-19T20:03:55.631Z,10.57
2022-12-19T20:10:59.003Z,12.63
2022-12-19T20:18:01.065Z,12.75
2022-12-19T20:25:03.589Z,16.58
2022-12-19T20:32:06.488Z,14.75
2022-12-19T20:39:08.992Z,13.57
2022-12-19T20:46:13.748Z,11.77
2022-12-19T20:53:15.695Z,13.10
2022-12-19T21:00:18.409Z,10.35
2022-12-19T21:07:20.660Z,13.55
2022-12-19T21:14:22.681Z,12.07
2022-12-19T21:21:29.532Z,14.45
2022-12-19T21:28:34.975Z,9.98
2022-12-19T21:35:38.461Z,12.45
2022-12-19T21:42:40.668Z,13.30
2022-12-19T21:49:42.886Z,9.88
2022-12-19T21:56:45.096Z,11.60
2022-12-19T22:03:47.763Z,14.15
2022-12-19T22:10:50.049Z,9.93
2022-12-19T22:17:52.026Z,12.90
2022-12-19T22:24:54.069Z,9.57
2022-12-19T22:31:56.037Z,12.38
2022-12-19T22:38:59.373Z,12.38
2022-12-19T22:46:15.440Z,13.77
2022-12-19T22:53:19.990Z,11.65
2022-12-19T23:00:22.544Z,8.50
2022-12-19T23:07:25.186Z,16.42
2022-12-19T23:14:27.781Z,11.48
2022-12-19T23:21:31.041Z,14.88
2022-12-19T23:28:33.467Z,15.82
2022-12-19T23:35:35.582Z,14.70
2022-12-19T23:42:38.201Z,15.38
2022-12-19T23:49:40.512Z,11.57
2022-12-19T23:56:42.492Z,15.70
